sensor_id;sensor_type;location;lat;lon;timestamp;pressure;altitude;pressure_sealevel;temperature;humidity
9249;BME280;4660;41.768;26.198;2024-01-06T00:00:56;100950.31;;;8.90;100.00
9249;BME280;4660;41.768;26.198;2024-01-06T00:03:22;100939.94;;;8.86;100.00
9249;BME280;4660;41.768;26.198;2024-01-06T00:05:47;100939.13;;;8.63;100.00
9249;BME280;4660;41.768;26.198;2024-01-06T00:08:13;100943.50;;;8.64;100.00
9249;BME280;4660;41.768;26.198;2024-01-06T00:10:38;100952.06;;;8.58;100.00
9249;BME280;4660;41.768;26.198;2024-01-06T00:13:03;100955.34;;;8.61;100.00
9249;BME280;4660;41.768;26.198;2024-01-06T00:15:29;100964.25;;;8.73;100.00
9249;BME280;4660;41.768;26.198;2024-01-06T00:17:54;100964.59;;;8.68;100.00
9249;BME280;4660;41.768;26.198;2024-01-06T00:20:20;100958.63;;;8.53;100.00
9249;BME280;4660;41.768;26.198;2024-01-06T00:22:45;100955.91;;;8.20;100.00
9249;BME280;4660;41.768;26.198;2024-01-06T00:25:11;100958.59;;;8.09;100.00
9249;BME280;4660;41.768;26.198;2024-01-06T00:27:36;100952.38;;;8.08;100.00
9249;BME280;4660;41.768;26.198;2024-01-06T00:30:02;100955.66;;;8.00;100.00
9249;BME280;4660;41.768;26.198;2024-01-06T00:32:28;100945.50;;;7.93;100.00
9249;BME280;4660;41.768;26.198;2024-01-06T00:34:54;100953.22;;;8.20;100.00
9249;BME280;4660;41.768;26.198;2024-01-06T00:37:20;100936.16;;;8.21;100.00
9249;BME280;4660;41.768;26.198;2024-01-06T00:39:45;100937.00;;;8.21;100.00
9249;BME280;4660;41.768;26.198;2024-01-06T00:42:10;100946.19;;;8.30;100.00
9249;BME280;4660;41.768;26.198;2024-01-06T00:44:36;100937.00;;;8.21;100.00
9249;BME280;4660;41.768;26.198;2024-01-06T00:47:02;100924.22;;;8.14;100.00
9249;BME280;4660;41.768;26.198;2024-01-06T00:49:28;100924.47;;;8.11;100.00
9249;BME280;4660;41.768;26.198;2024-01-06T00:51:53;100945.91;;;8.11;100.00
9249;BME280;4660;41.768;26.198;2024-01-06T00:54:19;100950.69;;;8.30;100.00
9249;BME280;4660;41.768;26.198;2024-01-06T00:56:44;100936.66;;;8.15;100.00
9249;BME280;4660;41.768;26.198;2024-01-06T00:59:10;100953.25;;;8.31;100.00
9249;BME280;4660;41.768;26.198;2024-01-06T01:01:35;100927.91;;;8.35;100.00
9249;BME280;4660;41.768;26.198;2024-01-06T01:04:01;100937.16;;;8.31;100.00
9249;BME280;4660;41.768;26.198;2024-01-06T01:06:26;100938.88;;;8.32;100.00
9249;BME280;4660;41.768;26.198;2024-01-06T01:08:52;100913.63;;;8.01;100.00
9249;BME280;4660;41.768;26.198;2024-01-06T01:11:18;100931.28;;;8.04;100.00
9249;BME280;4660;41.768;26.198;2024-01-06T01:13:44;100931.63;;;7.99;100.00
9249;BME280;4660;41.768;26.198;2024-01-06T01:16:10;100933.72;;;8.07;100.00
9249;BME280;4660;41.768;26.198;2024-01-06T01:18:35;100915.19;;;7.92;100.00
9249;BME280;4660;41.768;26.198;2024-01-06T01:21:01;100910.63;;;7.70;100.00
9249;BME280;4660;41.768;26.198;2024-01-06T01:23:26;100922.00;;;7.85;100.00
9249;BME280;4660;41.768;26.198;2024-01-06T01:25:52;100896.56;;;7.91;100.00
9249;BME280;4660;41.768;26.198;2024-01-06T01:28:17;100894.75;;;8.03;100.00
9249;BME280;4660;41.768;26.198;2024-01-06T01:30:43;100900.13;;;8.25;100.00
9249;BME280;4660;41.768;26.198;2024-01-06T01:33:08;100902.31;;;8.31;100.00
9249;BME280;4660;41.768;26.198;2024-01-06T01:35:34;100899.63;;;8.31;100.00
9249;BME280;4660;41.768;26.198;2024-01-06T01:37:59;100889.03;;;7.96;100.00
9249;BME280;4660;41.768;26.198;2024-01-06T01:40:25;100890.22;;;8.14;100.00
9249;BME280;4660;41.768;26.198;2024-01-06T01:42:50;100909.13;;;8.24;100.00
9249;BME280;4660;41.768;26.198;2024-01-06T01:45:16;100887.94;;;8.21;100.00
9249;BME280;4660;41.768;26.198;2024-01-06T01:47:41;100899.00;;;8.27;100.00
9249;BME280;4660;41.768;26.198;2024-01-06T01:50:07;100894.16;;;8.33;100.00
9249;BME280;4660;41.768;26.198;2024-01-06T01:52:35;100900.88;;;8.38;100.00
9249;BME280;4660;41.768;26.198;2024-01-06T01:55:01;100907.69;;;8.31;100.00
9249;BME280;4660;41.768;26.198;2024-01-06T01:57:27;100902.19;;;8.21;100.00
9249;BME280;4660;41.768;26.198;2024-01-06T01:59:53;100891.72;;;8.18;100.00
9249;BME280;4660;41.768;26.198;2024-01-06T02:02:20;100884.25;;;7.77;100.00
9249;BME280;4660;41.768;26.198;2024-01-06T02:04:46;100868.41;;;7.85;100.00
9249;BME280;4660;41.768;26.198;2024-01-06T02:07:12;100879.34;;;7.71;100.00
9249;BME280;4660;41.768;26.198;2024-01-06T02:09:37;100862.81;;;7.77;100.00
9249;BME280;4660;41.768;26.198;2024-01-06T02:12:03;100864.78;;;7.75;100.00
9249;BME280;4660;41.768;26.198;2024-01-06T02:14:29;100866.94;;;7.70;100.00
9249;BME280;4660;41.768;26.198;2024-01-06T02:16:54;100862.97;;;7.87;100.00
9249;BME280;4660;41.768;26.198;2024-01-06T02:19:20;100858.81;;;7.83;100.00
9249;BME280;4660;41.768;26.198;2024-01-06T02:21:51;100853.09;;;7.87;100.00
9249;BME280;4660;41.768;26.198;2024-01-06T02:24:17;100867.09;;;7.80;100.00
9249;BME280;4660;41.768;26.198;2024-01-06T02:26:42;100866.34;;;7.66;100.00
9249;BME280;4660;41.768;26.198;2024-01-06T02:29:08;100868.91;;;7.68;100.00
9249;BME280;4660;41.768;26.198;2024-01-06T02:31:34;100852.44;;;7.50;100.00
9249;BME280;4660;41.768;26.198;2024-01-06T02:33:59;100833.53;;;7.40;100.00
9249;BME280;4660;41.768;26.198;2024-01-06T02:36:24;100836.72;;;7.45;100.00
9249;BME280;4660;41.768;26.198;2024-01-06T02:38:50;100827.59;;;7.48;100.00
9249;BME280;4660;41.768;26.198;2024-01-06T02:41:15;100833.09;;;7.69;100.00
9249;BME280;4660;41.768;26.198;2024-01-06T02:43:41;100843.59;;;7.94;100.00
9249;BME280;4660;41.768;26.198;2024-01-06T02:46:07;100836.03;;;7.99;100.00
9249;BME280;4660;41.768;26.198;2024-01-06T02:48:32;100835.81;;;7.80;100.00
9249;BME280;4660;41.768;26.198;2024-01-06T02:50:58;100854.31;;;7.94;100.00
9249;BME280;4660;41.768;26.198;2024-01-06T02:53:23;100846.03;;;7.86;100.00
9249;BME280;4660;41.768;26.198;2024-01-06T02:55:49;100850.91;;;7.92;100.00
9249;BME280;4660;41.768;26.198;2024-01-06T02:58:14;100840.53;;;7.77;100.00
9249;BME280;4660;41.768;26.198;2024-01-06T03:00:40;100826.91;;;7.57;100.00
9249;BME280;4660;41.768;26.198;2024-01-06T03:03:05;100847.44;;;7.57;100.00
9249;BME280;4660;41.768;26.198;2024-01-06T03:05:31;100858.31;;;7.78;100.00
9249;BME280;4660;41.768;26.198;2024-01-06T03:07:56;100836.19;;;7.87;100.00
9249;BME280;4660;41.768;26.198;2024-01-06T03:10:22;100846.41;;;8.04;100.00
9249;BME280;4660;41.768;26.198;2024-01-06T03:12:48;100853.09;;;8.10;100.00
9249;BME280;4660;41.768;26.198;2024-01-06T03:15:13;100858.47;;;8.10;100.00
9249;BME280;4660;41.768;26.198;2024-01-06T03:17:39;100837.50;;;7.81;100.00
9249;BME280;4660;41.768;26.198;2024-01-06T03:20:05;100841.66;;;8.08;100.00
9249;BME280;4660;41.768;26.198;2024-01-06T03:22:30;100843.13;;;7.89;100.00
9249;BME280;4660;41.768;26.198;2024-01-06T03:24:56;100838.13;;;7.73;100.00
9249;BME280;4660;41.768;26.198;2024-01-06T03:27:21;100821.19;;;7.84;100.00
9249;BME280;4660;41.768;26.198;2024-01-06T03:29:46;100827.03;;;7.89;100.00
9249;BME280;4660;41.768;26.198;2024-01-06T03:32:12;100826.66;;;8.05;100.00
9249;BME280;4660;41.768;26.198;2024-01-06T03:34:38;100816.31;;;8.23;100.00
9249;BME280;4660;41.768;26.198;2024-01-06T03:37:03;100804.63;;;8.13;100.00
9249;BME280;4660;41.768;26.198;2024-01-06T03:39:29;100814.13;;;8.06;100.00
9249;BME280;4660;41.768;26.198;2024-01-06T03:41:54;100796.09;;;7.85;100.00
9249;BME280;4660;41.768;26.198;2024-01-06T03:44:20;100837.00;;;7.98;100.00
9249;BME280;4660;41.768;26.198;2024-01-06T03:46:45;100833.47;;;7.76;100.00
9249;BME280;4660;41.768;26.198;2024-01-06T03:49:11;100826.53;;;7.62;100.00
9249;BME280;4660;41.768;26.198;2024-01-06T03:51:36;100829.22;;;7.73;100.00
9249;BME280;4660;41.768;26.198;2024-01-06T03:54:02;100836.66;;;7.92;100.00
9249;BME280;4660;41.768;26.198;2024-01-06T03:56:27;100832.53;;;7.88;100.00
9249;BME280;4660;41.768;26.198;2024-01-06T03:58:53;100848.47;;;8.00;100.00
9249;BME280;4660;41.768;26.198;2024-01-06T04:01:18;100830.81;;;7.87;100.00
9249;BME280;4660;41.768;26.198;2024-01-06T04:03:43;100838.22;;;7.83;100.00
9249;BME280;4660;41.768;26.198;2024-01-06T04:06:09;100833.09;;;7.69;100.00
9249;BME280;4660;41.768;26.198;2024-01-06T04:08:36;100844.28;;;7.63;100.00
9249;BME280;4660;41.768;26.198;2024-01-06T04:11:01;100841.63;;;7.74;100.00
9249;BME280;4660;41.768;26.198;2024-01-06T04:13:27;100823.84;;;7.51;100.00
9249;BME280;4660;41.768;26.198;2024-01-06T04:15:53;100826.81;;;7.35;100.00
9249;BME280;4660;41.768;26.198;2024-01-06T04:18:18;100838.56;;;7.45;100.00
9249;BME280;4660;41.768;26.198;2024-01-06T04:20:44;100839.09;;;7.72;100.00
9249;BME280;4660;41.768;26.198;2024-01-06T04:23:09;100837.50;;;7.81;100.00
9249;BME280;4660;41.768;26.198;2024-01-06T04:25:35;100841.03;;;7.93;100.00
9249;BME280;4660;41.768;26.198;2024-01-06T04:28:00;100831.91;;;7.84;100.00
9249;BME280;4660;41.768;26.198;2024-01-06T04:30:26;100844.69;;;7.81;100.00
9249;BME280;4660;41.768;26.198;2024-01-06T04:32:51;100831.16;;;7.60;100.00
9249;BME280;4660;41.768;26.198;2024-01-06T04:35:18;100830.19;;;7.61;100.00
9249;BME280;4660;41.768;26.198;2024-01-06T04:37:43;100822.38;;;7.47;100.00
9249;BME280;4660;41.768;26.198;2024-01-06T04:40:10;100831.13;;;7.49;100.00
9249;BME280;4660;41.768;26.198;2024-01-06T04:42:35;100838.50;;;7.34;100.00
9249;BME280;4660;41.768;26.198;2024-01-06T04:45:01;100840.00;;;7.49;100.00
9249;BME280;4660;41.768;26.198;2024-01-06T04:47:26;100842.09;;;7.57;100.00
9249;BME280;4660;41.768;26.198;2024-01-06T04:49:53;100843.81;;;7.69;100.00
9249;BME280;4660;41.768;26.198;2024-01-06T04:52:18;100848.34;;;7.80;100.00
9249;BME280;4660;41.768;26.198;2024-01-06T04:54:44;100846.03;;;7.86;100.00
9249;BME280;4660;41.768;26.198;2024-01-06T04:57:09;100843.81;;;7.69;100.00
9249;BME280;4660;41.768;26.198;2024-01-06T04:59:35;100844.19;;;7.76;100.00
9249;BME280;4660;41.768;26.198;2024-01-06T05:02:01;100812.63;;;7.57;100.00
9249;BME280;4660;41.768;26.198;2024-01-06T05:04:26;100846.28;;;7.72;100.00
9249;BME280;4660;41.768;26.198;2024-01-06T05:06:52;100829.94;;;7.53;100.00
9249;BME280;4660;41.768;26.198;2024-01-06T05:09:17;100839.34;;;7.81;100.00
9249;BME280;4660;41.768;26.198;2024-01-06T05:11:44;100835.19;;;7.77;100.00
9249;BME280;4660;41.768;26.198;2024-01-06T05:14:10;100828.97;;;7.76;100.00
9249;BME280;4660;41.768;26.198;2024-01-06T05:16:35;100831.41;;;7.68;100.00
9249;BME280;4660;41.768;26.198;2024-01-06T05:19:01;100831.28;;;7.58;100.00
9249;BME280;4660;41.768;26.198;2024-01-06T05:21:26;100828.19;;;7.40;100.00
9249;BME280;4660;41.768;26.198;2024-01-06T05:23:52;100830.59;;;7.32;100.00
9249;BME280;4660;41.768;26.198;2024-01-06T05:26:17;100836.00;;;7.43;100.00
9249;BME280;4660;41.768;26.198;2024-01-06T05:28:43;100820.16;;;7.29;100.00
9249;BME280;4660;41.768;26.198;2024-01-06T05:31:08;100803.84;;;7.32;100.00
9249;BME280;4660;41.768;26.198;2024-01-06T05:33:34;100797.50;;;7.33;100.00
9249;BME280;4660;41.768;26.198;2024-01-06T05:35:59;100812.34;;;7.26;100.00
9249;BME280;4660;41.768;26.198;2024-01-06T05:38:25;100811.91;;;7.43;100.00
9249;BME280;4660;41.768;26.198;2024-01-06T05:40:50;100826.31;;;7.65;100.00
9249;BME280;4660;41.768;26.198;2024-01-06T05:43:16;100834.56;;;7.62;100.00
9249;BME280;4660;41.768;26.198;2024-01-06T05:45:41;100830.44;;;7.80;100.00
9249;BME280;4660;41.768;26.198;2024-01-06T05:48:10;100831.03;;;7.84;100.00
9249;BME280;4660;41.768;26.198;2024-01-06T05:50:39;100829.22;;;7.84;100.00
9249;BME280;4660;41.768;26.198;2024-01-06T05:53:05;100822.88;;;7.52;100.00
9249;BME280;4660;41.768;26.198;2024-01-06T05:55:30;100829.41;;;7.48;100.00
9249;BME280;4660;41.768;26.198;2024-01-06T05:57:56;100824.69;;;7.62;100.00
9249;BME280;4660;41.768;26.198;2024-01-06T06:00:21;100833.59;;;7.85;100.00
9249;BME280;4660;41.768;26.198;2024-01-06T06:02:47;100839.22;;;7.82;100.00
9249;BME280;4660;41.768;26.198;2024-01-06T06:05:13;100849.94;;;8.05;100.00
9249;BME280;4660;41.768;26.198;2024-01-06T06:07:39;100823.41;;;8.02;100.00
9249;BME280;4660;41.768;26.198;2024-01-06T06:10:09;100853.47;;;8.39;100.00
9249;BME280;4660;41.768;26.198;2024-01-06T06:12:35;100836.19;;;8.09;100.00
9249;BME280;4660;41.768;26.198;2024-01-06T06:15:01;100857.81;;;8.28;100.00
9249;BME280;4660;41.768;26.198;2024-01-06T06:17:31;100840.69;;;8.09;100.00
9249;BME280;4660;41.768;26.198;2024-01-06T06:19:57;100857.84;;;8.06;100.00
9249;BME280;4660;41.768;26.198;2024-01-06T06:22:24;100848.69;;;8.20;100.00
9249;BME280;4660;41.768;26.198;2024-01-06T06:24:52;100853.09;;;8.21;100.00
9249;BME280;4660;41.768;26.198;2024-01-06T06:27:17;100834.84;;;8.37;100.00
9249;BME280;4660;41.768;26.198;2024-01-06T06:29:43;100838.25;;;8.39;100.00
9249;BME280;4660;41.768;26.198;2024-01-06T06:32:08;100842.84;;;8.48;100.00
9249;BME280;4660;41.768;26.198;2024-01-06T06:34:33;100845.88;;;8.66;100.00
9249;BME280;4660;41.768;26.198;2024-01-06T06:36:59;100854.22;;;8.84;100.00
9249;BME280;4660;41.768;26.198;2024-01-06T06:39:24;100862.78;;;8.78;100.00
9249;BME280;4660;41.768;26.198;2024-01-06T06:41:52;100857.47;;;8.67;100.00
9249;BME280;4660;41.768;26.198;2024-01-06T06:44:17;100831.34;;;8.69;100.00
9249;BME280;4660;41.768;26.198;2024-01-06T06:46:43;100854.41;;;9.03;100.00
9249;BME280;4660;41.768;26.198;2024-01-06T06:49:08;100848.22;;;9.24;100.00
9249;BME280;4660;41.768;26.198;2024-01-06T06:51:34;100825.72;;;9.36;100.00
9249;BME280;4660;41.768;26.198;2024-01-06T06:54:00;100841.69;;;9.58;100.00
9249;BME280;4660;41.768;26.198;2024-01-06T06:56:26;100832.19;;;9.54;100.00
9249;BME280;4660;41.768;26.198;2024-01-06T06:58:51;100836.13;;;9.50;100.00
9249;BME280;4660;41.768;26.198;2024-01-06T07:01:17;100836.19;;;9.60;100.00
9249;BME280;4660;41.768;26.198;2024-01-06T07:03:43;100833.81;;;9.67;100.00
9249;BME280;4660;41.768;26.198;2024-01-06T07:06:11;100795.88;;;9.60;100.00
9249;BME280;4660;41.768;26.198;2024-01-06T07:08:37;100820.06;;;9.90;100.00
9249;BME280;4660;41.768;26.198;2024-01-06T07:11:04;100819.19;;;10.20;100.00
9249;BME280;4660;41.768;26.198;2024-01-06T07:13:30;100809.69;;;10.47;100.00
9249;BME280;4660;41.768;26.198;2024-01-06T07:15:56;100815.91;;;10.57;100.00
9249;BME280;4660;41.768;26.198;2024-01-06T07:18:21;100808.84;;;10.56;100.00
9249;BME280;4660;41.768;26.198;2024-01-06T07:20:49;100792.00;;;10.54;100.00
9249;BME280;4660;41.768;26.198;2024-01-06T07:23:15;100817.25;;;10.72;100.00
9249;BME280;4660;41.768;26.198;2024-01-06T07:25:40;100822.19;;;10.77;100.00
9249;BME280;4660;41.768;26.198;2024-01-06T07:28:06;100807.19;;;10.94;100.00
9249;BME280;4660;41.768;26.198;2024-01-06T07:30:33;100813.28;;;11.15;100.00
9249;BME280;4660;41.768;26.198;2024-01-06T07:32:59;100805.63;;;11.30;100.00
9249;BME280;4660;41.768;26.198;2024-01-06T07:35:25;100792.28;;;11.28;100.00
9249;BME280;4660;41.768;26.198;2024-01-06T07:37:51;100804.03;;;11.27;100.00
9249;BME280;4660;41.768;26.198;2024-01-06T07:40:16;100802.63;;;11.33;100.00
9249;BME280;4660;41.768;26.198;2024-01-06T07:42:43;100809.44;;;11.37;100.00
9249;BME280;4660;41.768;26.198;2024-01-06T07:45:09;100803.22;;;11.37;100.00
9249;BME280;4660;41.768;26.198;2024-01-06T07:47:35;100778.81;;;11.28;100.00
9249;BME280;4660;41.768;26.198;2024-01-06T07:50:01;100814.75;;;11.66;100.00
9249;BME280;4660;41.768;26.198;2024-01-06T07:52:27;100821.53;;;11.80;100.00
9249;BME280;4660;41.768;26.198;2024-01-06T07:54:53;100813.59;;;11.88;100.00
9249;BME280;4660;41.768;26.198;2024-01-06T07:57:18;100818.56;;;11.83;100.00
9249;BME280;4660;41.768;26.198;2024-01-06T07:59:45;100822.22;;;11.92;100.00
9249;BME280;4660;41.768;26.198;2024-01-06T08:02:12;100802.25;;;11.84;100.00
9249;BME280;4660;41.768;26.198;2024-01-06T08:04:38;100807.91;;;11.91;100.00
9249;BME280;4660;41.768;26.198;2024-01-06T08:07:04;100795.09;;;12.03;100.00
9249;BME280;4660;41.768;26.198;2024-01-06T08:09:30;100793.34;;;12.39;100.00
9249;BME280;4660;41.768;26.198;2024-01-06T08:11:55;100797.06;;;12.56;100.00
9249;BME280;4660;41.768;26.198;2024-01-06T08:14:20;100775.97;;;12.42;100.00
9249;BME280;4660;41.768;26.198;2024-01-06T08:16:46;100773.84;;;12.45;100.00
9249;BME280;4660;41.768;26.198;2024-01-06T08:19:11;100797.06;;;12.56;100.00
9249;BME280;4660;41.768;26.198;2024-01-06T08:21:37;100798.69;;;12.66;100.00
9249;BME280;4660;41.768;26.198;2024-01-06T08:24:02;100801.97;;;12.43;100.00
9249;BME280;4660;41.768;26.198;2024-01-06T08:26:28;100791.47;;;12.39;100.00
9249;BME280;4660;41.768;26.198;2024-01-06T08:28:54;100793.06;;;12.60;100.00
9249;BME280;4660;41.768;26.198;2024-01-06T08:31:19;100789.91;;;12.64;100.00
9249;BME280;4660;41.768;26.198;2024-01-06T08:33:45;100792.97;;;12.70;100.00
9249;BME280;4660;41.768;26.198;2024-01-06T08:36:11;100797.28;;;12.62;100.00
9249;BME280;4660;41.768;26.198;2024-01-06T08:38:37;100766.19;;;12.40;100.00
9249;BME280;4660;41.768;26.198;2024-01-06T08:41:03;100759.94;;;12.40;100.00
9249;BME280;4660;41.768;26.198;2024-01-06T08:43:30;100765.78;;;12.35;100.00
9249;BME280;4660;41.768;26.198;2024-01-06T08:45:56;100791.16;;;12.43;100.00
9249;BME280;4660;41.768;26.198;2024-01-06T08:48:22;100774.69;;;12.63;100.00
9249;BME280;4660;41.768;26.198;2024-01-06T08:50:47;100785.59;;;12.72;100.00
9249;BME280;4660;41.768;26.198;2024-01-06T08:53:13;100776.00;;;12.77;100.00
9249;BME280;4660;41.768;26.198;2024-01-06T08:55:39;100772.84;;;12.64;100.00
9249;BME280;4660;41.768;26.198;2024-01-06T08:58:04;100765.22;;;12.59;100.00
9249;BME280;4660;41.768;26.198;2024-01-06T09:00:30;100755.88;;;12.54;100.00
9249;BME280;4660;41.768;26.198;2024-01-06T09:02:56;100762.19;;;12.45;100.00
9249;BME280;4660;41.768;26.198;2024-01-06T09:05:22;100752.41;;;12.44;100.00
9249;BME280;4660;41.768;26.198;2024-01-06T09:07:48;100760.28;;;12.55;100.00
9249;BME280;4660;41.768;26.198;2024-01-06T09:10:17;100769.41;;;12.72;100.00
9249;BME280;4660;41.768;26.198;2024-01-06T09:12:42;100749.19;;;12.76;100.00
9249;BME280;4660;41.768;26.198;2024-01-06T09:15:08;100754.34;;;12.69;100.00
9249;BME280;4660;41.768;26.198;2024-01-06T09:17:34;100757.03;;;12.69;100.00
9249;BME280;4660;41.768;26.198;2024-01-06T09:20:00;100754.34;;;12.69;100.00
9249;BME280;4660;41.768;26.198;2024-01-06T09:22:26;100734.69;;;12.59;100.00
9249;BME280;4660;41.768;26.198;2024-01-06T09:24:52;100690.66;;;12.40;100.00
9249;BME280;4660;41.768;26.198;2024-01-06T09:27:19;100740.38;;;12.91;100.00
9249;BME280;4660;41.768;26.198;2024-01-06T09:29:44;100745.13;;;13.15;100.00
9249;BME280;4660;41.768;26.198;2024-01-06T09:32:10;100732.09;;;13.11;100.00
9249;BME280;4660;41.768;26.198;2024-01-06T09:34:35;100731.47;;;13.17;100.00
9249;BME280;4660;41.768;26.198;2024-01-06T09:37:02;100725.38;;;13.15;100.00
9249;BME280;4660;41.768;26.198;2024-01-06T09:39:28;100712.97;;;13.04;100.00
9249;BME280;4660;41.768;26.198;2024-01-06T09:41:56;100719.66;;;13.18;100.00
9249;BME280;4660;41.768;26.198;2024-01-06T09:44:22;100700.84;;;13.08;100.00
9249;BME280;4660;41.768;26.198;2024-01-06T09:46:49;100701.03;;;13.33;100.00
9249;BME280;4660;41.768;26.198;2024-01-06T09:49:18;100698.50;;;13.31;100.00
9249;BME280;4660;41.768;26.198;2024-01-06T09:51:49;100692.72;;;13.26;100.00
9249;BME280;4660;41.768;26.198;2024-01-06T09:54:22;100671.09;;;13.26;100.00
9249;BME280;4660;41.768;26.198;2024-01-06T09:56:49;100688.38;;;13.33;100.00
9249;BME280;4660;41.768;26.198;2024-01-06T09:59:15;100684.13;;;13.31;100.00
9249;BME280;4660;41.768;26.198;2024-01-06T10:01:41;100663.84;;;13.27;100.00
9249;BME280;4660;41.768;26.198;2024-01-06T10:04:07;100678.34;;;13.52;100.00
9249;BME280;4660;41.768;26.198;2024-01-06T10:06:32;100669.63;;;13.66;100.00
9249;BME280;4660;41.768;26.198;2024-01-06T10:08:59;100646.34;;;13.73;100.00
9249;BME280;4660;41.768;26.198;2024-01-06T10:11:25;100643.28;;;13.68;100.00
9249;BME280;4660;41.768;26.198;2024-01-06T10:13:52;100636.69;;;13.70;100.00
9249;BME280;4660;41.768;26.198;2024-01-06T10:16:18;100637.88;;;13.68;100.00
9249;BME280;4660;41.768;26.198;2024-01-06T10:18:44;100630.09;;;13.65;100.00
9249;BME280;4660;41.768;26.198;2024-01-06T10:21:10;100644.31;;;13.75;100.00
9249;BME280;4660;41.768;26.198;2024-01-06T10:23:36;100633.50;;;13.75;100.00
9249;BME280;4660;41.768;26.198;2024-01-06T10:26:02;100629.81;;;13.92;100.00
9249;BME280;4660;41.768;26.198;2024-01-06T10:28:28;100625.97;;;14.03;100.00
9249;BME280;4660;41.768;26.198;2024-01-06T10:30:55;100609.56;;;13.96;100.00
9249;BME280;4660;41.768;26.198;2024-01-06T10:33:25;100624.78;;;14.05;100.00
9249;BME280;4660;41.768;26.198;2024-01-06T10:35:52;100632.91;;;14.05;100.00
9249;BME280;4660;41.768;26.198;2024-01-06T10:38:18;100610.06;;;14.00;100.00
9249;BME280;4660;41.768;26.198;2024-01-06T10:41:02;100589.09;;;13.94;100.00
9249;BME280;4660;41.768;26.198;2024-01-06T10:43:35;100600.44;;;14.14;100.00
9249;BME280;4660;41.768;26.198;2024-01-06T10:46:03;100605.53;;;14.33;100.00
9249;BME280;4660;41.768;26.198;2024-01-06T10:48:34;100595.72;;;14.40;100.00
9249;BME280;4660;41.768;26.198;2024-01-06T10:51:01;100587.28;;;14.43;100.00
9249;BME280;4660;41.768;26.198;2024-01-06T10:53:33;100582.75;;;14.52;100.00
9249;BME280;4660;41.768;26.198;2024-01-06T10:56:01;100579.19;;;14.59;100.00
9249;BME280;4660;41.768;26.198;2024-01-06T10:58:28;100584.25;;;14.63;100.00
9249;BME280;4660;41.768;26.198;2024-01-06T11:00:57;100555.13;;;14.56;100.00
9249;BME280;4660;41.768;26.198;2024-01-06T11:03:24;100569.31;;;14.83;100.00
9249;BME280;4660;41.768;26.198;2024-01-06T11:05:51;100555.28;;;14.88;100.00
9249;BME280;4660;41.768;26.198;2024-01-06T11:08:17;100544.94;;;14.83;100.00
9249;BME280;4660;41.768;26.198;2024-01-06T11:10:44;100555.06;;;14.97;100.00
9249;BME280;4660;41.768;26.198;2024-01-06T11:13:16;100527.19;;;14.80;100.00
9249;BME280;4660;41.768;26.198;2024-01-06T11:15:51;100559.66;;;14.89;100.00
9249;BME280;4660;41.768;26.198;2024-01-06T11:21:21;100541.88;;;14.94;100.00
9249;BME280;4660;41.768;26.198;2024-01-06T11:24:24;100533.13;;;15.23;100.00
9249;BME280;4660;41.768;26.198;2024-01-06T11:26:58;100541.41;;;15.30;100.00
9249;BME280;4660;41.768;26.198;2024-01-06T11:29:25;100516.91;;;15.07;100.00
9249;BME280;4660;41.768;26.198;2024-01-06T11:32:29;100538.75;;;15.13;100.00
9249;BME280;4660;41.768;26.198;2024-01-06T11:34:56;100528.75;;;15.14;100.00
9249;BME280;4660;41.768;26.198;2024-01-06T11:42:46;100502.28;;;14.85;100.00
9249;BME280;4660;41.768;26.198;2024-01-06T11:45:12;100491.63;;;14.83;100.00
9249;BME280;4660;41.768;26.198;2024-01-06T11:47:39;100488.72;;;14.85;100.00
9249;BME280;4660;41.768;26.198;2024-01-06T11:50:05;100486.69;;;14.95;100.00
9249;BME280;4660;41.768;26.198;2024-01-06T11:52:34;100481.97;;;14.89;100.00
9249;BME280;4660;41.768;26.198;2024-01-06T11:55:00;100486.38;;;14.82;100.00
9249;BME280;4660;41.768;26.198;2024-01-06T11:57:34;100458.22;;;14.52;100.00
9249;BME280;4660;41.768;26.198;2024-01-06T12:00:00;100477.28;;;14.67;100.00
9249;BME280;4660;41.768;26.198;2024-01-06T12:02:25;100485.03;;;14.78;100.00
9249;BME280;4660;41.768;26.198;2024-01-06T12:04:52;100452.38;;;14.71;100.00
9249;BME280;4660;41.768;26.198;2024-01-06T12:07:19;100470.56;;;15.02;100.00
9249;BME280;4660;41.768;26.198;2024-01-06T12:09:46;100478.31;;;15.05;100.00
9249;BME280;4660;41.768;26.198;2024-01-06T12:12:18;100477.66;;;15.03;100.00
9249;BME280;4660;41.768;26.198;2024-01-06T12:14:43;100454.53;;;14.84;100.00
9249;BME280;4660;41.768;26.198;2024-01-06T12:17:11;100434.13;;;14.73;100.00
9249;BME280;4660;41.768;26.198;2024-01-06T12:19:39;100452.53;;;14.78;100.00
9249;BME280;4660;41.768;26.198;2024-01-06T12:22:09;100463.03;;;14.81;100.00
9249;BME280;4660;41.768;26.198;2024-01-06T12:24:35;100455.59;;;14.75;100.00
9249;BME280;4660;41.768;26.198;2024-01-06T12:27:01;100466.31;;;14.99;100.00
9249;BME280;4660;41.768;26.198;2024-01-06T12:29:27;100471.84;;;15.14;100.00
9249;BME280;4660;41.768;26.198;2024-01-06T12:32:00;100473.97;;;14.96;100.00
9249;BME280;4660;41.768;26.198;2024-01-06T12:34:26;100469.06;;;14.91;100.00
9249;BME280;4660;41.768;26.198;2024-01-06T12:36:53;100446.50;;;14.68;100.00
9249;BME280;4660;41.768;26.198;2024-01-06T12:39:20;100459.66;;;14.71;100.00
9249;BME280;4660;41.768;26.198;2024-01-06T12:41:46;100444.28;;;14.63;100.00
9249;BME280;4660;41.768;26.198;2024-01-06T12:44:11;100453.69;;;14.83;100.00
9249;BME280;4660;41.768;26.198;2024-01-06T12:46:38;100465.63;;;15.05;100.00
9249;BME280;4660;41.768;26.198;2024-01-06T12:49:04;100456.19;;;15.01;100.00
9249;BME280;4660;41.768;26.198;2024-01-06T12:51:29;100445.56;;;14.83;100.00
9249;BME280;4660;41.768;26.198;2024-01-06T12:53:55;100448.28;;;14.83;100.00
9249;BME280;4660;41.768;26.198;2024-01-06T12:56:21;100440.06;;;14.69;100.00
9249;BME280;4660;41.768;26.198;2024-01-06T12:58:48;100429.22;;;14.69;100.00